sensor_id;sensor_type;location;lat;lon;timestamp;temperature;humidity
37432;DHT22;23292;51.300;6.252;2024-03-02T00:01:15;8.50;99.90
37432;DHT22;23292;51.300;6.252;2024-03-02T00:03:42;8.50;99.90
37432;DHT22;23292;51.300;6.252;2024-03-02T00:06:10;8.60;99.90
37432;DHT22;23292;51.300;6.252;2024-03-02T00:08:37;8.60;99.90
37432;DHT22;23292;51.300;6.252;2024-03-02T00:11:04;8.70;99.90
37432;DHT22;23292;51.300;6.252;2024-03-02T00:13:31;8.70;99.90
37432;DHT22;23292;51.300;6.252;2024-03-02T00:15:59;8.70;99.90
37432;DHT22;23292;51.300;6.252;2024-03-02T00:18:30;8.80;99.90
37432;DHT22;23292;51.300;6.252;2024-03-02T00:20:57;8.80;99.90
37432;DHT22;23292;51.300;6.252;2024-03-02T00:23:29;8.80;99.90
37432;DHT22;23292;51.300;6.252;2024-03-02T00:25:56;8.80;99.90
37432;DHT22;23292;51.300;6.252;2024-03-02T00:28:34;8.80;99.90
37432;DHT22;23292;51.300;6.252;2024-03-02T00:31:08;8.80;99.90
37432;DHT22;23292;51.300;6.252;2024-03-02T00:33:44;8.80;99.90
37432;DHT22;23292;51.300;6.252;2024-03-02T00:36:13;8.80;99.90
37432;DHT22;23292;51.300;6.252;2024-03-02T00:38:47;8.80;99.90
37432;DHT22;23292;51.300;6.252;2024-03-02T00:41:20;8.90;99.90
37432;DHT22;23292;51.300;6.252;2024-03-02T00:43:59;8.90;99.90
37432;DHT22;23292;51.300;6.252;2024-03-02T00:46:41;8.90;99.90
37432;DHT22;23292;51.300;6.252;2024-03-02T00:51:48;8.80;99.90
37432;DHT22;23292;51.300;6.252;2024-03-02T00:54:19;8.80;99.90
37432;DHT22;23292;51.300;6.252;2024-03-02T00:56:47;8.80;99.90
37432;DHT22;23292;51.300;6.252;2024-03-02T00:59:14;8.80;99.90
37432;DHT22;23292;51.300;6.252;2024-03-02T01:01:41;8.80;99.90
37432;DHT22;23292;51.300;6.252;2024-03-02T01:04:09;8.80;99.90
37432;DHT22;23292;51.300;6.252;2024-03-02T01:06:36;8.80;99.90
37432;DHT22;23292;51.300;6.252;2024-03-02T01:09:03;8.80;99.90
37432;DHT22;23292;51.300;6.252;2024-03-02T01:11:29;8.90;99.90
37432;DHT22;23292;51.300;6.252;2024-03-02T01:13:56;8.90;99.90
37432;DHT22;23292;51.300;6.252;2024-03-02T01:16:23;8.90;99.90
37432;DHT22;23292;51.300;6.252;2024-03-02T01:18:50;8.90;99.90
37432;DHT22;23292;51.300;6.252;2024-03-02T01:21:17;8.90;99.90
37432;DHT22;23292;51.300;6.252;2024-03-02T01:23:44;8.80;99.90
37432;DHT22;23292;51.300;6.252;2024-03-02T01:26:10;8.80;99.90
37432;DHT22;23292;51.300;6.252;2024-03-02T01:28:37;8.80;99.90
37432;DHT22;23292;51.300;6.252;2024-03-02T01:31:04;8.90;99.90
37432;DHT22;23292;51.300;6.252;2024-03-02T01:33:31;8.90;99.90
37432;DHT22;23292;51.300;6.252;2024-03-02T01:35:58;9.00;99.90
37432;DHT22;23292;51.300;6.252;2024-03-02T01:38:25;9.00;99.90
37432;DHT22;23292;51.300;6.252;2024-03-02T01:40:52;9.00;99.90
37432;DHT22;23292;51.300;6.252;2024-03-02T01:43:18;9.00;99.90
37432;DHT22;23292;51.300;6.252;2024-03-02T01:45:45;9.00;99.90
37432;DHT22;23292;51.300;6.252;2024-03-02T01:48:12;9.00;99.90
37432;DHT22;23292;51.300;6.252;2024-03-02T01:50:39;9.00;99.90
37432;DHT22;23292;51.300;6.252;2024-03-02T01:53:06;9.00;99.90
37432;DHT22;23292;51.300;6.252;2024-03-02T01:55:34;9.00;99.90
37432;DHT22;23292;51.300;6.252;2024-03-02T01:58:01;8.90;99.90
37432;DHT22;23292;51.300;6.252;2024-03-02T02:00:28;8.90;99.90
37432;DHT22;23292;51.300;6.252;2024-03-02T02:02:55;8.90;99.90
37432;DHT22;23292;51.300;6.252;2024-03-02T02:05:22;9.10;99.90
37432;DHT22;23292;51.300;6.252;2024-03-02T02:07:50;9.20;99.90
37432;DHT22;23292;51.300;6.252;2024-03-02T02:10:17;9.30;99.90
37432;DHT22;23292;51.300;6.252;2024-03-02T02:12:43;9.20;99.90
37432;DHT22;23292;51.300;6.252;2024-03-02T02:15:24;9.10;99.90
37432;DHT22;23292;51.300;6.252;2024-03-02T02:17:51;9.00;99.90
37432;DHT22;23292;51.300;6.252;2024-03-02T02:20:18;8.80;99.90
37432;DHT22;23292;51.300;6.252;2024-03-02T02:23:04;8.80;99.90
37432;DHT22;23292;51.300;6.252;2024-03-02T02:25:36;8.70;99.90
37432;DHT22;23292;51.300;6.252;2024-03-02T02:28:03;8.60;99.90
37432;DHT22;23292;51.300;6.252;2024-03-02T02:30:31;8.60;99.90
37432;DHT22;23292;51.300;6.252;2024-03-02T02:32:59;8.60;99.90
37432;DHT22;23292;51.300;6.252;2024-03-02T02:35:26;8.60;99.90
37432;DHT22;23292;51.300;6.252;2024-03-02T02:37:54;8.60;99.90
37432;DHT22;23292;51.300;6.252;2024-03-02T02:40:22;8.60;99.90
37432;DHT22;23292;51.300;6.252;2024-03-02T02:42:49;8.70;99.90
37432;DHT22;23292;51.300;6.252;2024-03-02T02:45:16;8.80;99.90
37432;DHT22;23292;51.300;6.252;2024-03-02T02:47:43;8.80;99.90
37432;DHT22;23292;51.300;6.252;2024-03-02T02:50:12;8.70;99.90
37432;DHT22;23292;51.300;6.252;2024-03-02T02:52:40;8.70;99.90
37432;DHT22;23292;51.300;6.252;2024-03-02T02:55:12;8.60;99.90
37432;DHT22;23292;51.300;6.252;2024-03-02T02:57:41;8.70;99.90
37432;DHT22;23292;51.300;6.252;2024-03-02T03:00:11;8.60;99.90
37432;DHT22;23292;51.300;6.252;2024-03-02T03:02:44;8.60;99.90
37432;DHT22;23292;51.300;6.252;2024-03-02T03:05:13;8.60;99.90
37432;DHT22;23292;51.300;6.252;2024-03-02T03:07:41;8.50;99.90
37432;DHT22;23292;51.300;6.252;2024-03-02T03:10:08;8.50;99.90
37432;DHT22;23292;51.300;6.252;2024-03-02T03:12:36;8.40;99.90
37432;DHT22;23292;51.300;6.252;2024-03-02T03:15:03;8.40;99.90
37432;DHT22;23292;51.300;6.252;2024-03-02T03:17:31;8.40;99.90
37432;DHT22;23292;51.300;6.252;2024-03-02T03:19:58;8.20;99.90
37432;DHT22;23292;51.300;6.252;2024-03-02T03:22:25;8.30;99.90
37432;DHT22;23292;51.300;6.252;2024-03-02T03:24:52;8.30;99.90
37432;DHT22;23292;51.300;6.252;2024-03-02T03:27:19;8.30;99.90
37432;DHT22;23292;51.300;6.252;2024-03-02T03:29:46;8.30;99.90
37432;DHT22;23292;51.300;6.252;2024-03-02T03:32:13;8.20;99.90
37432;DHT22;23292;51.300;6.252;2024-03-02T03:34:41;8.20;99.90
37432;DHT22;23292;51.300;6.252;2024-03-02T03:37:07;8.10;99.90
37432;DHT22;23292;51.300;6.252;2024-03-02T03:39:34;8.00;99.90
37432;DHT22;23292;51.300;6.252;2024-03-02T03:42:04;7.80;99.90
37432;DHT22;23292;51.300;6.252;2024-03-02T03:44:31;7.80;99.90
37432;DHT22;23292;51.300;6.252;2024-03-02T03:46:58;7.90;99.90
37432;DHT22;23292;51.300;6.252;2024-03-02T03:49:25;7.80;99.90
37432;DHT22;23292;51.300;6.252;2024-03-02T03:51:52;7.90;99.90
37432;DHT22;23292;51.300;6.252;2024-03-02T03:54:19;7.80;99.90
37432;DHT22;23292;51.300;6.252;2024-03-02T03:56:46;7.70;99.90
37432;DHT22;23292;51.300;6.252;2024-03-02T03:59:13;7.70;99.90
37432;DHT22;23292;51.300;6.252;2024-03-02T04:01:39;7.50;99.90
37432;DHT22;23292;51.300;6.252;2024-03-02T04:04:06;7.50;99.90
37432;DHT22;23292;51.300;6.252;2024-03-02T04:06:34;7.30;99.90
37432;DHT22;23292;51.300;6.252;2024-03-02T04:09:00;7.20;99.90
37432;DHT22;23292;51.300;6.252;2024-03-02T04:11:27;7.20;99.90
37432;DHT22;23292;51.300;6.252;2024-03-02T04:13:54;7.20;99.90
37432;DHT22;23292;51.300;6.252;2024-03-02T04:16:24;7.30;99.90
37432;DHT22;23292;51.300;6.252;2024-03-02T04:18:51;7.30;99.90
37432;DHT22;23292;51.300;6.252;2024-03-02T04:21:18;7.30;99.90
37432;DHT22;23292;51.300;6.252;2024-03-02T04:23:44;7.40;99.90
37432;DHT22;23292;51.300;6.252;2024-03-02T04:26:11;7.40;99.90
37432;DHT22;23292;51.300;6.252;2024-03-02T04:28:38;7.40;99.90
37432;DHT22;23292;51.300;6.252;2024-03-02T04:31:04;7.40;99.90
37432;DHT22;23292;51.300;6.252;2024-03-02T04:33:31;7.40;99.90
37432;DHT22;23292;51.300;6.252;2024-03-02T04:35:58;7.50;99.90
37432;DHT22;23292;51.300;6.252;2024-03-02T04:38:25;7.50;99.90
37432;DHT22;23292;51.300;6.252;2024-03-02T04:40:52;7.50;99.90
37432;DHT22;23292;51.300;6.252;2024-03-02T04:43:18;7.50;99.90
37432;DHT22;23292;51.300;6.252;2024-03-02T04:45:45;7.50;99.90
37432;DHT22;23292;51.300;6.252;2024-03-02T04:48:12;7.40;99.90
37432;DHT22;23292;51.300;6.252;2024-03-02T04:50:41;7.40;99.90
37432;DHT22;23292;51.300;6.252;2024-03-02T04:53:08;7.30;99.90
37432;DHT22;23292;51.300;6.252;2024-03-02T04:55:34;7.40;99.90
37432;DHT22;23292;51.300;6.252;2024-03-02T04:58:01;7.30;99.90
37432;DHT22;23292;51.300;6.252;2024-03-02T05:00:28;7.30;99.90
37432;DHT22;23292;51.300;6.252;2024-03-02T05:02:55;7.30;99.90
37432;DHT22;23292;51.300;6.252;2024-03-02T05:05:22;7.30;99.90
37432;DHT22;23292;51.300;6.252;2024-03-02T05:07:48;7.30;99.90
37432;DHT22;23292;51.300;6.252;2024-03-02T05:10:15;7.20;99.90
37432;DHT22;23292;51.300;6.252;2024-03-02T05:12:42;7.30;99.90
37432;DHT22;23292;51.300;6.252;2024-03-02T05:15:14;7.30;99.90
37432;DHT22;23292;51.300;6.252;2024-03-02T05:17:42;7.30;99.90
37432;DHT22;23292;51.300;6.252;2024-03-02T05:20:11;7.30;99.90
37432;DHT22;23292;51.300;6.252;2024-03-02T05:22:38;7.20;99.90
37432;DHT22;23292;51.300;6.252;2024-03-02T05:25:07;7.30;99.90
37432;DHT22;23292;51.300;6.252;2024-03-02T05:27:34;7.30;99.90
37432;DHT22;23292;51.300;6.252;2024-03-02T05:30:01;7.30;99.90
37432;DHT22;23292;51.300;6.252;2024-03-02T05:32:28;7.30;99.90
37432;DHT22;23292;51.300;6.252;2024-03-02T05:34:54;7.30;99.90
37432;DHT22;23292;51.300;6.252;2024-03-02T05:37:21;7.30;99.90
37432;DHT22;23292;51.300;6.252;2024-03-02T05:39:48;7.30;99.90
37432;DHT22;23292;51.300;6.252;2024-03-02T05:42:15;7.20;99.90
37432;DHT22;23292;51.300;6.252;2024-03-02T05:44:44;7.30;99.90
37432;DHT22;23292;51.300;6.252;2024-03-02T05:47:10;7.30;99.90
37432;DHT22;23292;51.300;6.252;2024-03-02T05:49:37;7.30;99.90
37432;DHT22;23292;51.300;6.252;2024-03-02T05:52:04;7.30;99.90
37432;DHT22;23292;51.300;6.252;2024-03-02T05:54:31;7.40;99.90
37432;DHT22;23292;51.300;6.252;2024-03-02T05:56:58;7.50;99.90
37432;DHT22;23292;51.300;6.252;2024-03-02T05:59:43;7.50;99.90
37432;DHT22;23292;51.300;6.252;2024-03-02T06:02:13;7.50;99.90
37432;DHT22;23292;51.300;6.252;2024-03-02T06:04:39;7.50;99.90
37432;DHT22;23292;51.300;6.252;2024-03-02T06:07:06;7.40;99.90
37432;DHT22;23292;51.300;6.252;2024-03-02T06:09:33;7.40;99.90
37432;DHT22;23292;51.300;6.252;2024-03-02T06:12:00;7.30;99.90
37432;DHT22;23292;51.300;6.252;2024-03-02T06:14:27;7.10;99.90
37432;DHT22;23292;51.300;6.252;2024-03-02T06:16:54;7.00;99.90
37432;DHT22;23292;51.300;6.252;2024-03-02T06:19:20;6.90;99.90
37432;DHT22;23292;51.300;6.252;2024-03-02T06:21:47;6.90;99.90
37432;DHT22;23292;51.300;6.252;2024-03-02T06:24:14;6.90;99.90
37432;DHT22;23292;51.300;6.252;2024-03-02T06:26:41;6.90;99.90
37432;DHT22;23292;51.300;6.252;2024-03-02T06:29:08;6.90;99.90
37432;DHT22;23292;51.300;6.252;2024-03-02T06:31:34;7.10;99.90
37432;DHT22;23292;51.300;6.252;2024-03-02T06:34:01;7.20;99.90
37432;DHT22;23292;51.300;6.252;2024-03-02T06:36:30;7.20;99.90
37432;DHT22;23292;51.300;6.252;2024-03-02T06:38:57;7.20;99.90
37432;DHT22;23292;51.300;6.252;2024-03-02T06:41:24;7.20;99.90
37432;DHT22;23292;51.300;6.252;2024-03-02T06:43:50;7.30;99.90
37432;DHT22;23292;51.300;6.252;2024-03-02T06:46:21;7.30;99.90
37432;DHT22;23292;51.300;6.252;2024-03-02T06:48:47;7.30;99.90
37432;DHT22;23292;51.300;6.252;2024-03-02T06:51:14;7.20;99.90
37432;DHT22;23292;51.300;6.252;2024-03-02T06:53:42;7.20;99.90
37432;DHT22;23292;51.300;6.252;2024-03-02T06:56:09;7.20;99.90
37432;DHT22;23292;51.300;6.252;2024-03-02T06:58:36;7.20;99.90
37432;DHT22;23292;51.300;6.252;2024-03-02T07:01:02;7.20;99.90
37432;DHT22;23292;51.300;6.252;2024-03-02T07:03:29;7.40;99.90
37432;DHT22;23292;51.300;6.252;2024-03-02T07:05:56;7.40;99.90
37432;DHT22;23292;51.300;6.252;2024-03-02T07:08:23;7.40;99.90
37432;DHT22;23292;51.300;6.252;2024-03-02T07:10:50;7.40;99.90
37432;DHT22;23292;51.300;6.252;2024-03-02T07:13:17;7.50;99.90
37432;DHT22;23292;51.300;6.252;2024-03-02T07:15:44;7.50;99.90
37432;DHT22;23292;51.300;6.252;2024-03-02T07:18:36;7.40;99.90
37432;DHT22;23292;51.300;6.252;2024-03-02T07:21:07;7.30;99.90
37432;DHT22;23292;51.300;6.252;2024-03-02T07:23:34;7.20;99.90
37432;DHT22;23292;51.300;6.252;2024-03-02T07:26:01;7.20;99.90
37432;DHT22;23292;51.300;6.252;2024-03-02T07:28:32;7.20;99.90
37432;DHT22;23292;51.300;6.252;2024-03-02T07:31:04;7.20;99.90
37432;DHT22;23292;51.300;6.252;2024-03-02T07:33:31;7.20;99.90
37432;DHT22;23292;51.300;6.252;2024-03-02T07:35:59;7.30;99.90
37432;DHT22;23292;51.300;6.252;2024-03-02T07:38:31;7.30;99.90
37432;DHT22;23292;51.300;6.252;2024-03-02T07:40:58;7.30;99.90
37432;DHT22;23292;51.300;6.252;2024-03-02T07:43:25;7.40;99.90
37432;DHT22;23292;51.300;6.252;2024-03-02T07:45:51;7.50;99.90
37432;DHT22;23292;51.300;6.252;2024-03-02T07:48:19;7.60;99.90
37432;DHT22;23292;51.300;6.252;2024-03-02T07:50:46;7.70;99.90
37432;DHT22;23292;51.300;6.252;2024-03-02T07:53:13;7.90;99.90
37432;DHT22;23292;51.300;6.252;2024-03-02T07:55:40;8.10;99.90
37432;DHT22;23292;51.300;6.252;2024-03-02T07:58:07;8.30;99.90
37432;DHT22;23292;51.300;6.252;2024-03-02T08:00:34;8.50;99.90
37432;DHT22;23292;51.300;6.252;2024-03-02T08:03:02;8.60;99.90
37432;DHT22;23292;51.300;6.252;2024-03-02T08:05:28;8.70;99.90
37432;DHT22;23292;51.300;6.252;2024-03-02T08:07:55;8.90;99.90
37432;DHT22;23292;51.300;6.252;2024-03-02T08:10:22;9.00;99.90
37432;DHT22;23292;51.300;6.252;2024-03-02T08:12:49;9.20;99.90
37432;DHT22;23292;51.300;6.252;2024-03-02T08:15:16;9.30;99.90
37432;DHT22;23292;51.300;6.252;2024-03-02T08:17:42;9.40;99.90
37432;DHT22;23292;51.300;6.252;2024-03-02T08:20:15;9.60;99.90
37432;DHT22;23292;51.300;6.252;2024-03-02T08:22:43;9.70;99.90
37432;DHT22;23292;51.300;6.252;2024-03-02T08:25:10;9.90;99.90
37432;DHT22;23292;51.300;6.252;2024-03-02T08:27:40;9.90;99.90
37432;DHT22;23292;51.300;6.252;2024-03-02T08:30:07;10.10;99.90
37432;DHT22;23292;51.300;6.252;2024-03-02T08:32:35;10.20;99.90
37432;DHT22;23292;51.300;6.252;2024-03-02T08:35:01;10.20;99.90
37432;DHT22;23292;51.300;6.252;2024-03-02T08:37:28;10.30;99.90
37432;DHT22;23292;51.300;6.252;2024-03-02T08:39:55;10.40;99.90
37432;DHT22;23292;51.300;6.252;2024-03-02T08:42:22;10.50;99.90
37432;DHT22;23292;51.300;6.252;2024-03-02T08:44:49;10.60;99.90
37432;DHT22;23292;51.300;6.252;2024-03-02T08:47:17;10.70;99.90
37432;DHT22;23292;51.300;6.252;2024-03-02T08:49:43;10.60;99.90
37432;DHT22;23292;51.300;6.252;2024-03-02T08:52:10;10.50;99.90
37432;DHT22;23292;51.300;6.252;2024-03-02T08:54:37;10.50;99.90
37432;DHT22;23292;51.300;6.252;2024-03-02T08:57:05;10.40;99.90
37432;DHT22;23292;51.300;6.252;2024-03-02T08:59:32;10.50;99.90
37432;DHT22;23292;51.300;6.252;2024-03-02T09:01:59;10.50;99.90
37432;DHT22;23292;51.300;6.252;2024-03-02T09:04:26;10.50;99.90
37432;DHT22;23292;51.300;6.252;2024-03-02T09:06:55;10.50;99.90
37432;DHT22;23292;51.300;6.252;2024-03-02T09:09:22;10.60;99.90
37432;DHT22;23292;51.300;6.252;2024-03-02T09:11:49;10.90;99.90
37432;DHT22;23292;51.300;6.252;2024-03-02T09:14:16;10.90;99.90
37432;DHT22;23292;51.300;6.252;2024-03-02T09:16:43;11.00;99.90
37432;DHT22;23292;51.300;6.252;2024-03-02T09:19:09;11.00;99.90
37432;DHT22;23292;51.300;6.252;2024-03-02T09:21:37;11.10;99.90
37432;DHT22;23292;51.300;6.252;2024-03-02T09:24:04;11.10;99.90
37432;DHT22;23292;51.300;6.252;2024-03-02T09:26:31;11.20;99.90
37432;DHT22;23292;51.300;6.252;2024-03-02T09:28:58;11.20;99.90
37432;DHT22;23292;51.300;6.252;2024-03-02T09:31:24;11.20;99.90
37432;DHT22;23292;51.300;6.252;2024-03-02T09:33:51;11.30;99.90
37432;DHT22;23292;51.300;6.252;2024-03-02T09:36:19;11.30;99.90
37432;DHT22;23292;51.300;6.252;2024-03-02T09:38:47;11.30;99.90
37432;DHT22;23292;51.300;6.252;2024-03-02T09:41:14;11.40;99.90
37432;DHT22;23292;51.300;6.252;2024-03-02T09:43:41;11.40;99.90
37432;DHT22;23292;51.300;6.252;2024-03-02T09:46:09;11.40;99.90
37432;DHT22;23292;51.300;6.252;2024-03-02T09:48:37;11.40;99.90
37432;DHT22;23292;51.300;6.252;2024-03-02T09:51:04;11.50;99.90
37432;DHT22;23292;51.300;6.252;2024-03-02T09:53:32;11.50;99.90
37432;DHT22;23292;51.300;6.252;2024-03-02T09:56:00;11.60;99.90
37432;DHT22;23292;51.300;6.252;2024-03-02T09:58:27;11.70;99.90
37432;DHT22;23292;51.300;6.252;2024-03-02T10:00:54;11.70;99.90
37432;DHT22;23292;51.300;6.252;2024-03-02T10:03:23;11.80;99.90
37432;DHT22;23292;51.300;6.252;2024-03-02T10:05:51;11.90;99.90
37432;DHT22;23292;51.300;6.252;2024-03-02T10:08:18;12.10;99.90
37432;DHT22;23292;51.300;6.252;2024-03-02T10:10:45;12.30;99.90
37432;DHT22;23292;51.300;6.252;2024-03-02T10:13:13;12.50;99.90
37432;DHT22;23292;51.300;6.252;2024-03-02T10:15:41;12.60;99.90
37432;DHT22;23292;51.300;6.252;2024-03-02T10:18:12;12.60;99.90
37432;DHT22;23292;51.300;6.252;2024-03-02T10:20:40;12.70;99.90
37432;DHT22;23292;51.300;6.252;2024-03-02T10:23:12;12.70;99.90
37432;DHT22;23292;51.300;6.252;2024-03-02T10:25:39;12.70;99.90
37432;DHT22;23292;51.300;6.252;2024-03-02T10:28:20;12.50;99.90
37432;DHT22;23292;51.300;6.252;2024-03-02T10:30:48;12.40;99.90
37432;DHT22;23292;51.300;6.252;2024-03-02T10:33:17;12.40;99.90
37432;DHT22;23292;51.300;6.252;2024-03-02T10:35:44;12.50;99.90
37432;DHT22;23292;51.300;6.252;2024-03-02T10:38:11;12.60;99.90
37432;DHT22;23292;51.300;6.252;2024-03-02T10:40:38;12.80;99.90
37432;DHT22;23292;51.300;6.252;2024-03-02T10:43:05;12.70;99.90
37432;DHT22;23292;51.300;6.252;2024-03-02T10:45:34;12.70;99.90
37432;DHT22;23292;51.300;6.252;2024-03-02T10:48:02;12.80;99.90
37432;DHT22;23292;51.300;6.252;2024-03-02T10:50:30;13.00;99.90
37432;DHT22;23292;51.300;6.252;2024-03-02T10:52:57;13.00;99.90
37432;DHT22;23292;51.300;6.252;2024-03-02T10:55:24;12.90;99.90
37432;DHT22;23292;51.300;6.252;2024-03-02T10:57:52;12.90;99.90
37432;DHT22;23292;51.300;6.252;2024-03-02T11:00:25;12.80;99.90
37432;DHT22;23292;51.300;6.252;2024-03-02T11:03:01;12.80;99.90
37432;DHT22;23292;51.300;6.252;2024-03-02T11:05:36;12.90;99.90
37432;DHT22;23292;51.300;6.252;2024-03-02T11:08:06;13.00;99.90
37432;DHT22;23292;51.300;6.252;2024-03-02T11:10:56;13.00;99.90
37432;DHT22;23292;51.300;6.252;2024-03-02T11:13:33;13.10;99.90
37432;DHT22;23292;51.300;6.252;2024-03-02T11:16:06;13.10;99.90
37432;DHT22;23292;51.300;6.252;2024-03-02T11:18:37;13.20;99.90
37432;DHT22;23292;51.300;6.252;2024-03-02T11:21:05;13.20;99.90
37432;DHT22;23292;51.300;6.252;2024-03-02T11:23:33;13.30;99.90
37432;DHT22;23292;51.300;6.252;2024-03-02T11:26:19;13.40;99.90
37432;DHT22;23292;51.300;6.252;2024-03-02T11:28:47;13.50;99.90
37432;DHT22;23292;51.300;6.252;2024-03-02T11:31:14;13.60;99.90
37432;DHT22;23292;51.300;6.252;2024-03-02T11:33:40;13.80;99.90
37432;DHT22;23292;51.300;6.252;2024-03-02T11:36:08;13.90;99.90
37432;DHT22;23292;51.300;6.252;2024-03-02T11:38:38;14.00;99.90
37432;DHT22;23292;51.300;6.252;2024-03-02T11:41:07;14.10;99.90
37432;DHT22;23292;51.300;6.252;2024-03-02T11:43:39;14.10;99.90
37432;DHT22;23292;51.300;6.252;2024-03-02T11:46:10;14.00;99.90
37432;DHT22;23292;51.300;6.252;2024-03-02T11:48:39;13.90;99.90
37432;DHT22;23292;51.300;6.252;2024-03-02T11:51:06;13.90;99.90
37432;DHT22;23292;51.300;6.252;2024-03-02T11:53:33;13.80;99.90
37432;DHT22;23292;51.300;6.252;2024-03-02T11:56:02;13.70;99.90
37432;DHT22;23292;51.300;6.252;2024-03-02T11:58:30;13.40;99.90
37432;DHT22;23292;51.300;6.252;2024-03-02T12:00:57;13.30;99.90
37432;DHT22;23292;51.300;6.252;2024-03-02T12:03:25;13.20;99.90
37432;DHT22;23292;51.300;6.252;2024-03-02T12:05:54;13.00;99.90
37432;DHT22;23292;51.300;6.252;2024-03-02T12:08:21;12.90;99.90
37432;DHT22;23292;51.300;6.252;2024-03-02T12:11:06;12.90;99.90
37432;DHT22;23292;51.300;6.252;2024-03-02T12:13:33;12.90;99.90
37432;DHT22;23292;51.300;6.252;2024-03-02T12:16:00;13.10;99.90
37432;DHT22;23292;51.300;6.252;2024-03-02T12:18:27;13.20;99.90
37432;DHT22;23292;51.300;6.252;2024-03-02T12:20:54;13.20;99.90
37432;DHT22;23292;51.300;6.252;2024-03-02T12:23:25;13.50;99.90
37432;DHT22;23292;51.300;6.252;2024-03-02T12:25:53;13.50;99.90
37432;DHT22;23292;51.300;6.252;2024-03-02T12:28:20;13.50;99.90
37432;DHT22;23292;51.300;6.252;2024-03-02T12:30:47;13.70;99.90
37432;DHT22;23292;51.300;6.252;2024-03-02T12:33:15;13.70;99.90
37432;DHT22;23292;51.300;6.252;2024-03-02T12:35:43;13.70;99.90
37432;DHT22;23292;51.300;6.252;2024-03-02T12:38:09;13.80;99.90
37432;DHT22;23292;51.300;6.252;2024-03-02T12:40:37;13.90;99.90
37432;DHT22;23292;51.300;6.252;2024-03-02T12:43:05;13.90;99.90
37432;DHT22;23292;51.300;6.252;2024-03-02T12:45:33;14.00;99.90
37432;DHT22;23292;51.300;6.252;2024-03-02T12:48:00;14.00;99.90
37432;DHT22;23292;51.300;6.252;2024-03-02T12:50:28;13.90;99.90
37432;DHT22;23292;51.300;6.252;2024-03-02T12:52:55;13.80;99.90
37432;DHT22;23292;51.300;6.252;2024-03-02T12:55:23;14.00;99.90
37432;DHT22;23292;51.300;6.252;2024-03-02T12:57:52;14.20;99.90
37432;DHT22;23292;51.300;6.252;2024-03-02T13:00:20;14.20;99.90
37432;DHT22;23292;51.300;6.252;2024-03-02T13:02:48;14.20;99.90
37432;DHT22;23292;51.300;6.252;2024-03-02T13:05:17;14.30;99.90
37432;DHT22;23292;51.300;6.252;2024-03-02T13:07:43;14.40;99.90
37432;DHT22;23292;51.300;6.252;2024-03-02T13:10:12;14.40;99.90
37432;DHT22;23292;51.300;6.252;2024-03-02T13:12:39;14.30;99.90
37432;DHT22;23292;51.300;6.252;2024-03-02T13:15:06;14.40;99.90
37432;DHT22;23292;51.300;6.252;2024-03-02T13:17:36;14.60;99.90
37432;DHT22;23292;51.300;6.252;2024-03-02T13:20:04;14.70;99.90
37432;DHT22;23292;51.300;6.252;2024-03-02T13:22:34;14.70;99.90
37432;DHT22;23292;51.300;6.252;2024-03-02T13:25:01;14.60;99.90
37432;DHT22;23292;51.300;6.252;2024-03-02T13:27:31;14.60;99.90
37432;DHT22;23292;51.300;6.252;2024-03-02T13:29:59;14.30;99.90
37432;DHT22;23292;51.300;6.252;2024-03-02T13:32:26;14.20;99.90
37432;DHT22;23292;51.300;6.252;2024-03-02T13:34:53;14.30;99.90
37432;DHT22;23292;51.300;6.252;2024-03-02T13:37:23;14.20;99.90
37432;DHT22;23292;51.300;6.252;2024-03-02T13:39:50;14.10;99.90
37432;DHT22;23292;51.300;6.252;2024-03-02T13:42:17;14.10;99.90
37432;DHT22;23292;51.300;6.252;2024-03-02T13:44:44;14.10;99.90
37432;DHT22;23292;51.300;6.252;2024-03-02T13:47:15;13.90;99.90
37432;DHT22;23292;51.300;6.252;2024-03-02T13:49:42;14.10;99.90
37432;DHT22;23292;51.300;6.252;2024-03-02T13:52:13;14.10;99.90
37432;DHT22;23292;51.300;6.252;2024-03-02T13:54:41;14.10;99.90
37432;DHT22;23292;51.300;6.252;2024-03-02T13:57:10;14.10;99.90
37432;DHT22;23292;51.300;6.252;2024-03-02T13:59:37;14.10;99.90
37432;DHT22;23292;51.300;6.252;2024-03-02T14:02:05;14.10;99.90
37432;DHT22;23292;51.300;6.252;2024-03-02T14:04:36;14.00;99.90
37432;DHT22;23292;51.300;6.252;2024-03-02T14:07:03;13.90;99.90
37432;DHT22;23292;51.300;6.252;2024-03-02T14:09:30;13.90;99.90
37432;DHT22;23292;51.300;6.252;2024-03-02T14:11:57;13.90;99.90
37432;DHT22;23292;51.300;6.252;2024-03-02T14:14:24;13.80;99.90
37432;DHT22;23292;51.300;6.252;2024-03-02T14:16:52;13.80;99.90
37432;DHT22;23292;51.300;6.252;2024-03-02T14:19:19;13.70;99.90
37432;DHT22;23292;51.300;6.252;2024-03-02T14:21:47;13.80;99.90
37432;DHT22;23292;51.300;6.252;2024-03-02T14:24:14;13.90;99.90
37432;DHT22;23292;51.300;6.252;2024-03-02T14:26:41;13.90;99.90
37432;DHT22;23292;51.300;6.252;2024-03-02T14:29:08;13.90;99.90
37432;DHT22;23292;51.300;6.252;2024-03-02T14:31:35;13.90;99.90
37432;DHT22;23292;51.300;6.252;2024-03-02T14:34:02;14.20;99.90
37432;DHT22;23292;51.300;6.252;2024-03-02T14:36:30;14.30;99.90
37432;DHT22;23292;51.300;6.252;2024-03-02T14:38:57;14.20;99.90
37432;DHT22;23292;51.300;6.252;2024-03-02T14:41:24;14.30;99.90
37432;DHT22;23292;51.300;6.252;2024-03-02T14:43:51;14.40;99.90
37432;DHT22;23292;51.300;6.252;2024-03-02T14:46:19;14.50;99.90
37432;DHT22;23292;51.300;6.252;2024-03-02T14:48:46;14.50;99.90
37432;DHT22;23292;51.300;6.252;2024-03-02T14:51:14;14.50;99.90
37432;DHT22;23292;51.300;6.252;2024-03-02T14:53:41;14.60;99.90
37432;DHT22;23292;51.300;6.252;2024-03-02T14:56:08;14.60;99.90
37432;DHT22;23292;51.300;6.252;2024-03-02T14:58:35;14.50;99.90
37432;DHT22;23292;51.300;6.252;2024-03-02T15:01:04;14.60;99.90
37432;DHT22;23292;51.300;6.252;2024-03-02T15:03:35;14.60;99.90
37432;DHT22;23292;51.300;6.252;2024-03-02T15:06:05;14.40;99.90
37432;DHT22;23292;51.300;6.252;2024-03-02T15:08:34;14.40;99.90
37432;DHT22;23292;51.300;6.252;2024-03-02T15:11:00;14.30;99.90
37432;DHT22;23292;51.300;6.252;2024-03-02T15:13:27;14.10;99.90
37432;DHT22;23292;51.300;6.252;2024-03-02T15:15:54;14.00;99.90
37432;DHT22;23292;51.300;6.252;2024-03-02T15:18:21;14.10;99.90
37432;DHT22;23292;51.300;6.252;2024-03-02T15:20:48;14.10;99.90
37432;DHT22;23292;51.300;6.252;2024-03-02T15:23:15;14.20;99.90
37432;DHT22;23292;51.300;6.252;2024-03-02T15:25:42;14.20;99.90
37432;DHT22;23292;51.300;6.252;2024-03-02T15:28:09;14.10;99.90
37432;DHT22;23292;51.300;6.252;2024-03-02T15:30:36;14.10;99.90
37432;DHT22;23292;51.300;6.252;2024-03-02T15:33:03;14.00;99.90
37432;DHT22;23292;51.300;6.252;2024-03-02T15:35:30;14.00;99.90
37432;DHT22;23292;51.300;6.252;2024-03-02T15:37:57;14.00;99.90
37432;DHT22;23292;51.300;6.252;2024-03-02T15:40:23;13.90;99.90
37432;DHT22;23292;51.300;6.252;2024-03-02T15:42:51;13.90;99.90
37432;DHT22;23292;51.300;6.252;2024-03-02T15:45:18;13.80;99.90
37432;DHT22;23292;51.300;6.252;2024-03-02T15:47:44;13.80;99.90